createdAt,value
2023-03-29T08:38:47.442Z,7.50
2023-03-29T08:41:30.825Z,7.47
2023-03-29T08:44:10.874Z,7.95
2023-03-29T08:47:03.779Z,6.95
2023-03-29T08:49:39.903Z,8.27
2023-03-29T08:52:21.085Z,7.30
2023-03-29T08:54:54.061Z,7.53
2023-03-29T08:57:32.910Z,8.40
2023-03-29T09:00:18.920Z,8.48
2023-03-29T09:02:49.472Z,8.70
2023-03-29T09:05:23.950Z,8.15
2023-03-29T09:08:01.106Z,8.20
2023-03-29T09:10:40.949Z,8.02
2023-03-29T09:13:26.030Z,7.82
2023-03-29T09:16:05.830Z,8.50
2023-03-29T09:18:53.145Z,7.60
2023-03-29T09:21:27.355Z,7.45
2023-03-29T09:24:24.338Z,8.90
2023-03-29T09:27:04.234Z,8.45
2023-03-29T09:29:51.352Z,8.98
2023-03-29T09:32:33.078Z,8.07
2023-03-29T09:35:18.621Z,8.65
2023-03-29T09:40:23.710Z,8.75
2023-03-29T09:43:05.309Z,9.70
2023-03-29T09:45:33.611Z,9.27
2023-03-29T09:48:10.355Z,9.50
2023-03-29T09:50:43.192Z,8.80
2023-03-29T09:53:12.626Z,9.82
2023-03-29T09:55:49.790Z,10.43
2023-03-29T09:58:31.032Z,9.48
2023-03-29T10:01:00.744Z,9.13
2023-03-29T10:03:31.094Z,10.10
2023-03-29T10:06:10.835Z,10.95
2023-03-29T10:08:42.984Z,9.82
2023-03-29T10:11:18.970Z,10.75
2023-03-29T10:13:50.645Z,10.40
2023-03-29T10:16:22.053Z,9.85
2023-03-29T10:18:51.176Z,10.65
2023-03-29T10:21:21.329Z,11.10
2023-03-29T10:23:50.395Z,10.40
2023-03-29T10:26:28.723Z,9.57
2023-03-29T10:29:00.348Z,10.70
2023-03-29T10:31:31.203Z,11.13
2023-03-29T10:34:05.069Z,9.95
2023-03-29T10:36:35.460Z,11.63
2023-03-29T10:39:06.354Z,9.45
2023-03-29T10:41:36.450Z,11.43
2023-03-29T10:44:05.276Z,11.40
2023-03-29T10:46:41.211Z,11.05
2023-03-29T10:49:19.089Z,12.07
2023-03-29T10:51:50.716Z,11.80
2023-03-29T10:54:22.200Z,11.85
2023-03-29T10:56:53.673Z,12.88
2023-03-29T10:59:29.723Z,11.75
2023-03-29T11:02:29.978Z,11.82
2023-03-29T11:05:13.592Z,12.88
2023-03-29T11:07:57.308Z,11.38
2023-03-29T11:10:36.611Z,12.32
2023-03-29T11:13:13.830Z,12.00
2023-03-29T11:15:52.886Z,14.02
2023-03-29T11:18:53.419Z,12.55
2023-03-29T11:21:29.832Z,12.90
2023-03-29T11:24:25.303Z,13.77
2023-03-29T11:27:05.711Z,12.43
2023-03-29T11:29:41.145Z,13.85
2023-03-29T11:32:15.759Z,12.77
2023-03-29T11:34:58.856Z,12.45
2023-03-29T11:37:34.925Z,11.20
2023-03-29T11:40:18.003Z,13.50
2023-03-29T11:42:49.456Z,12.65
2023-03-29T11:45:24.421Z,12.40
2023-03-29T11:47:55.627Z,12.63
2023-03-29T11:50:30.396Z,13.27
2023-03-29T11:53:03.324Z,12.20
2023-03-29T11:55:36.774Z,13.60
2023-03-29T11:58:11.135Z,11.98
2023-03-29T12:00:44.937Z,12.35
2023-03-29T12:03:16.083Z,13.13
2023-03-29T12:05:49.426Z,12.52
2023-03-29T12:08:23.613Z,12.27
2023-03-29T12:11:02.810Z,12.68
2023-03-29T12:13:35.184Z,12.57
2023-03-29T12:16:12.402Z,11.95
2023-03-29T12:18:42.881Z,11.60
2023-03-29T12:21:15.293Z,12.30
2023-03-29T12:23:45.903Z,10.93
2023-03-29T12:26:28.333Z,12.40
2023-03-29T12:29:10.059Z,10.90
2023-03-29T12:31:46.992Z,9.85
2023-03-29T12:34:37.748Z,11.25
2023-03-29T12:37:39.118Z,10.15
2023-03-29T12:40:29.434Z,10.05
2023-03-29T12:43:24.655Z,8.95
2023-03-29T12:46:17.432Z,9.80
2023-03-29T12:48:47.737Z,10.40
2023-03-29T12:51:18.438Z,10.63
2023-03-29T12:53:48.254Z,9.75
2023-03-29T12:56:18.729Z,10.43
2023-03-29T12:59:18.564Z,9.70
2023-03-29T13:02:00.253Z,10.02
2023-03-29T13:04:49.746Z,9.57
2023-03-29T13:07:31.217Z,9.43
2023-03-29T13:10:01.412Z,9.57
2023-03-29T13:12:33.406Z,9.77
2023-03-29T13:15:06.835Z,10.65
2023-03-29T13:17:51.778Z,9.88
2023-03-29T13:20:32.388Z,9.57
2023-03-29T13:23:17.801Z,9.73
2023-03-29T13:26:02.340Z,9.60
2023-03-29T13:28:41.594Z,8.82
2023-03-29T13:31:34.775Z,9.75
2023-03-29T13:34:08.972Z,10.00
2023-03-29T13:36:53.704Z,9.15
2023-03-29T13:39:24.329Z,9.93
2023-03-29T13:41:54.878Z,9.35
2023-03-29T13:44:36.129Z,10.80
2023-03-29T13:47:16.442Z,10.52
2023-03-29T13:49:51.707Z,10.20
2023-03-29T13:52:25.627Z,10.07
2023-03-29T13:54:58.740Z,10.07
2023-03-29T13:57:34.190Z,9.95
2023-03-29T14:00:11.999Z,9.18
2023-03-29T14:02:49.690Z,9.98
2023-03-29T14:05:20.735Z,9.70
2023-03-29T14:07:51.637Z,10.13
2023-03-29T14:10:23.898Z,10.30
2023-03-29T14:12:52.406Z,10.10
2023-03-29T14:15:24.234Z,10.32
2023-03-29T14:18:00.827Z,10.60
2023-03-29T14:20:31.801Z,9.40
2023-03-29T14:23:00.688Z,9.98
2023-03-29T14:25:30.661Z,9.55
2023-03-29T14:27:58.962Z,8.77
2023-03-29T14:30:29.336Z,9.23
2023-03-29T14:32:59.078Z,9.40
2023-03-29T14:35:33.493Z,9.30
2023-03-29T14:38:03.806Z,9.05
2023-03-29T14:40:32.674Z,9.57
2023-03-29T14:43:07.193Z,8.23
2023-03-29T14:45:35.651Z,8.38
2023-03-29T14:48:05.927Z,8.55
2023-03-29T14:50:36.557Z,9.20
2023-03-29T14:53:06.748Z,9.05
2023-03-29T14:55:36.563Z,8.48
2023-03-29T14:58:04.699Z,8.70
2023-03-29T15:00:42.256Z,8.35
2023-03-29T15:03:16.593Z,8.70
2023-03-29T15:05:48.806Z,8.68
2023-03-29T15:08:19.939Z,7.60
2023-03-29T15:10:48.225Z,8.43
2023-03-29T15:13:20.970Z,7.90
2023-03-29T15:15:53.636Z,9.40
2023-03-29T15:18:28.877Z,9.17
2023-03-29T15:20:56.820Z,8.38
2023-03-29T15:23:26.424Z,7.65
2023-03-29T15:25:58.394Z,8.00
2023-03-29T15:28:30.737Z,8.52
2023-03-29T15:31:07.861Z,8.80
2023-03-29T15:33:39.786Z,9.25
2023-03-29T15:36:09.995Z,8.45
2023-03-29T15:41:10.608Z,8.82
2023-03-29T15:43:38.947Z,8.45
2023-03-29T15:46:07.623Z,8.52
2023-03-29T15:48:37.478Z,9.82
2023-03-29T15:51:06.995Z,9.13
2023-03-29T15:53:36.371Z,8.73
2023-03-29T15:56:07.923Z,9.30
2023-03-29T15:58:37.027Z,9.48
2023-03-29T16:01:13.228Z,8.70
2023-03-29T16:03:46.979Z,9.98
2023-03-29T16:06:17.326Z,9.02
2023-03-29T16:08:46.019Z,10.00
2023-03-29T16:11:14.081Z,8.73
2023-03-29T16:13:42.196Z,8.27
2023-03-29T16:16:12.255Z,8.23
2023-03-29T16:18:40.663Z,7.35
2023-03-29T16:21:14.264Z,7.28
2023-03-29T16:26:13.723Z,6.30
2023-03-29T16:28:43.324Z,7.18
2023-03-29T16:31:13.381Z,6.30
2023-03-29T16:33:42.282Z,6.97
2023-03-29T16:36:12.109Z,7.35
2023-03-29T16:38:40.630Z,7.30
2023-03-29T16:41:09.041Z,7.50
2023-03-29T16:43:38.601Z,7.60
2023-03-29T16:46:08.816Z,7.88
2023-03-29T16:48:37.260Z,8.13
2023-03-29T16:51:06.931Z,8.30
2023-03-29T16:53:36.409Z,7.90
2023-03-29T16:56:05.973Z,8.10
2023-03-29T16:58:34.254Z,8.25
2023-03-29T17:01:09.936Z,9.13
2023-03-29T17:03:38.379Z,8.20
2023-03-29T17:06:07.799Z,8.82
2023-03-29T17:08:37.390Z,9.02
2023-03-29T17:11:07.500Z,9.52
2023-03-29T17:13:35.574Z,9.38
2023-03-29T17:16:04.042Z,9.80
2023-03-29T17:18:32.696Z,10.07
2023-03-29T17:21:01.651Z,10.55
2023-03-29T17:23:29.835Z,10.20
2023-03-29T17:25:59.660Z,9.70
2023-03-29T17:28:27.623Z,9.98
2023-03-29T17:30:55.992Z,10.02
2023-03-29T17:33:25.885Z,9.73
2023-03-29T17:35:53.881Z,9.77
2023-03-29T17:38:21.900Z,10.32
2023-03-29T17:40:53.559Z,11.65
2023-03-29T17:43:23.362Z,12.45
2023-03-29T17:45:52.641Z,12.43
2023-03-29T17:48:21.249Z,13.88
2023-03-29T17:50:49.445Z,13.05
2023-03-29T17:53:19.488Z,12.40
2023-03-29T17:55:47.455Z,13.90
2023-03-29T17:58:15.382Z,13.65
2023-03-29T18:00:44.894Z,15.10
2023-03-29T18:03:14.584Z,14.60
2023-03-29T18:05:42.921Z,14.82
2023-03-29T18:08:12.824Z,14.68
2023-03-29T18:10:40.758Z,14.60
2023-03-29T18:13:11.220Z,15.45
2023-03-29T18:15:39.185Z,15.30
2023-03-29T18:18:08.685Z,16.38
2023-03-29T18:20:36.725Z,16.20
2023-03-29T18:23:04.951Z,16.42
2023-03-29T18:25:32.988Z,17.00
2023-03-29T18:28:00.834Z,16.60
2023-03-29T18:30:28.781Z,17.42
2023-03-29T18:32:56.819Z,17.95
2023-03-29T18:35:26.199Z,18.25
2023-03-29T18:37:55.043Z,17.35
2023-03-29T18:40:24.876Z,17.13
2023-03-29T18:42:53.202Z,19.00
2023-03-29T18:45:21.456Z,18.77
2023-03-29T18:47:50.648Z,20.20
2023-03-29T18:50:18.968Z,20.73
2023-03-29T18:52:48.317Z,19.75
2023-03-29T18:55:16.524Z,20.25
2023-03-29T18:57:44.554Z,20.77
2023-03-29T19:00:13.225Z,21.92
2023-03-29T19:02:41.353Z,20.92
2023-03-29T19:05:10.886Z,20.77
2023-03-29T19:07:39.173Z,21.60
2023-03-29T19:10:09.745Z,22.02
2023-03-29T19:12:37.729Z,22.38
2023-03-29T19:15:07.172Z,21.10
2023-03-29T19:17:35.339Z,21.80
2023-03-29T19:20:04.774Z,20.15
2023-03-29T19:22:34.003Z,20.67
2023-03-29T19:25:02.022Z,20.00
2023-03-29T19:27:31.729Z,21.35
2023-03-29T19:29:59.792Z,20.67
2023-03-29T19:32:27.882Z,19.88
2023-03-29T19:34:55.971Z,19.67
2023-03-29T19:37:23.877Z,18.60
2023-03-29T19:39:54.532Z,18.55
2023-03-29T19:42:22.714Z,18.55
2023-03-29T19:44:52.295Z,20.00
2023-03-29T19:47:20.129Z,19.10
2023-03-29T19:49:48.071Z,19.08
2023-03-29T19:52:16.104Z,19.05
2023-03-29T19:54:44.250Z,17.95
2023-03-29T19:57:12.533Z,18.63
2023-03-29T19:59:41.078Z,18.02
2023-03-29T20:02:12.293Z,17.33
2023-03-29T20:04:40.852Z,17.55
2023-03-29T20:07:09.058Z,17.58
2023-03-29T20:09:37.710Z,17.52
2023-03-29T20:12:06.049Z,16.98
2023-03-29T20:14:34.932Z,16.30
2023-03-29T20:17:03.472Z,16.48
2023-03-29T20:19:36.727Z,16.23
2023-03-29T20:22:05.268Z,17.00
2023-03-29T20:24:34.693Z,15.27
2023-03-29T20:27:05.589Z,16.50
2023-03-29T20:29:34.081Z,15.65
2023-03-29T20:32:02.934Z,16.40
2023-03-29T20:34:32.767Z,16.13
2023-03-29T20:37:06.685Z,16.23
2023-03-29T20:39:35.952Z,15.50
2023-03-29T20:42:04.340Z,16.15
2023-03-29T20:44:34.861Z,15.90
2023-03-29T20:47:08.286Z,16.73
2023-03-29T20:49:38.146Z,15.90
2023-03-29T20:52:08.570Z,15.82
2023-03-29T20:54:39.707Z,16.17
2023-03-29T20:57:08.081Z,15.57
2023-03-29T20:59:38.023Z,15.40
2023-03-29T21:02:06.949Z,16.55
2023-03-29T21:04:37.189Z,16.65
2023-03-29T21:07:08.159Z,16.52
2023-03-29T21:09:38.711Z,16.40
2023-03-29T21:12:07.316Z,15.95
2023-03-29T21:14:38.952Z,16.77
2023-03-29T21:17:09.286Z,16.42
2023-03-29T21:19:43.974Z,16.75
2023-03-29T21:22:16.692Z,16.25
2023-03-29T21:24:45.194Z,15.45
2023-03-29T21:27:14.452Z,16.33
2023-03-29T21:29:44.251Z,18.25
2023-03-29T21:32:14.980Z,16.17
2023-03-29T21:34:44.708Z,16.77
2023-03-29T21:37:15.372Z,16.88
2023-03-29T21:39:44.141Z,17.48
2023-03-29T21:42:15.516Z,18.23
2023-03-29T21:44:44.638Z,16.00
2023-03-29T21:47:13.036Z,17.10
2023-03-29T21:49:46.263Z,17.20
2023-03-29T21:52:15.231Z,17.52
2023-03-29T21:54:44.007Z,18.48
2023-03-29T21:57:12.755Z,17.50
2023-03-29T21:59:41.796Z,18.27
2023-03-29T22:02:11.060Z,17.30
2023-03-29T22:04:39.343Z,17.38
2023-03-29T22:07:10.930Z,16.55
2023-03-29T22:09:41.317Z,17.42
2023-03-29T22:12:10.692Z,17.00
2023-03-29T22:14:38.685Z,16.27
2023-03-29T22:17:07.053Z,16.38
2023-03-29T22:19:38.821Z,16.52
2023-03-29T22:22:13.505Z,17.40
2023-03-29T22:24:42.251Z,16.75
2023-03-29T22:27:10.679Z,15.73
2023-03-29T22:29:38.709Z,16.05
2023-03-29T22:32:06.900Z,15.77
2023-03-29T22:34:35.473Z,15.05
2023-03-29T22:37:03.913Z,17.20
2023-03-29T22:39:35.983Z,15.70
2023-03-29T22:42:04.246Z,15.50
2023-03-29T22:44:34.039Z,16.88
2023-03-29T22:47:02.531Z,16.80
2023-03-29T22:49:31.000Z,16.13
2023-03-29T22:51:59.692Z,17.10
2023-03-29T22:54:27.824Z,18.20
2023-03-29T22:56:57.774Z,17.48
2023-03-29T22:59:26.927Z,17.27
2023-03-29T23:01:55.028Z,18.52
2023-03-29T23:04:23.270Z,18.10
2023-03-29T23:06:51.527Z,17.08
2023-03-29T23:09:19.659Z,17.75
2023-03-29T23:11:47.813Z,17.25
2023-03-29T23:14:18.945Z,17.20
2023-03-29T23:16:47.291Z,17.58
2023-03-29T23:19:15.294Z,16.50
2023-03-29T23:21:43.297Z,17.02
2023-03-29T23:24:11.171Z,15.95
2023-03-29T23:26:39.144Z,16.05
2023-03-29T23:29:07.688Z,17.33
2023-03-29T23:31:37.889Z,16.83
2023-03-29T23:34:06.158Z,16.38
2023-03-29T23:36:34.045Z,16.58
2023-03-29T23:39:02.013Z,16.42
2023-03-29T23:41:30.473Z,15.55
2023-03-29T23:43:58.595Z,15.95
2023-03-29T23:46:26.610Z,15.82
2023-03-29T23:48:56.113Z,15.65
2023-03-29T23:51:28.471Z,15.57
2023-03-29T23:53:57.066Z,15.35
2023-03-29T23:56:25.121Z,15.40
2023-03-29T23:58:53.066Z,16.02
